Sint-Niklaas, Belgium
Current Conditions -  °F | °C
As of 6:20 PM on Sunday 23 Nov 2014 (Local Time) from EBAW Reporting Station
Clear Clear  
Wind Chill: 57°   Ceiling: Unl
Heat Index: 57°   Visibility: 6mi
Dew Point: 50°   Wind: 3mph
Humidity: 77%   Direction: 170°S
Pressure: 29.94"   Gusts: NA
Location:  51.17°N, 4.1°E
Report Text: EBAW 231720Z 17003KT CAVOK 14/10 Q1014 NOSIG
Loading
Personal Weather Stations






























Interactive Weather Map New forecast layout! Learn more

10-Day Weather Forecast

Advertisements
Track Severe Weather on mobile